aviador You're here:

KMEI Decoded Metar

MERIDIAN/KEY FLD in MS, USA
Report Time2017-09-24 22:58:00
UTC Time2017-09-24 23:08:53
Flight Rules vfr VFR
Wind110° at 05 kt
W.Decomp.*RWY 04: 1.5 kt HW 4.8 kt RCW
RWY 19: 1.0 kt HW 4.9 kt LCW
W.Rank110° ranks 24
Current wind is below 110° avg. (5.6)
Visibility9999 m
Phenomena:N/A
Clouds:N/A
Expected CloudBase > 4,000 ft AGL from Temp-Dew spread
CeilingNone
Temp29°C (ISA +15)
Dew Point19°C (55% RH)
Heat Index30.3°C
QNH1014 hPa
Density Alt2,224 ft
Elevation292 ft
Report Wrong Elevation
Raw Report
KMEI 242258Z 11005KT 10SM CLR 29/19 A2994 RMK AO2 SLP135
T02940194=

Extra information for KMEI:More info

Metar Taf Metar & Taf Last 4 Metars F.Rules Stats Wind Profile Meteogram Temp Stats Airport Information Weather charts Add Link Nearby VenuesMetar ALERT Operation Metar Decoded Social comments

AIRNAV info for KMEI